createdAt,value
2023-04-01T00:00:00.934Z,95627.66
2023-04-01T00:02:27.527Z,95622.91
2023-04-01T00:04:53.992Z,95608.69
2023-04-01T00:07:20.615Z,95623.34
2023-04-01T00:09:47.062Z,95596.22
2023-04-01T00:12:13.569Z,95621.75
2023-04-01T00:14:40.154Z,95601.63
2023-04-01T00:17:06.586Z,95617.72
2023-04-01T00:19:33.002Z,95626.75
2023-04-01T00:21:59.572Z,95603.22
2023-04-01T00:24:25.970Z,95599.06
2023-04-01T00:26:52.449Z,95609.34
2023-04-01T00:29:19.062Z,95644.06
2023-04-01T00:31:45.829Z,95618.69
2023-04-01T00:34:12.920Z,95595.31
2023-04-01T00:36:39.622Z,95617.22
2023-04-01T00:39:06.199Z,95622.91
2023-04-01T00:41:32.719Z,95632.56
2023-04-01T00:44:21.419Z,95614.91
2023-04-01T00:46:47.976Z,95620.97
2023-04-01T00:49:15.247Z,95591.25
2023-04-01T00:51:42.070Z,95616.00
2023-04-01T00:54:08.578Z,95616.69
2023-04-01T00:56:35.794Z,95622.13
2023-04-01T00:59:06.020Z,95603.34
2023-04-01T01:01:32.535Z,95618.81
2023-04-01T01:03:59.085Z,95611.25
2023-04-01T01:06:44.212Z,95643.25
2023-04-01T01:09:19.912Z,95596.44
2023-04-01T01:11:51.531Z,95587.25
2023-04-01T01:14:20.928Z,95620.19
2023-04-01T01:16:49.527Z,95610.56
2023-04-01T01:19:18.888Z,95641.44
2023-04-01T01:21:50.730Z,95600.66
2023-04-01T01:24:19.603Z,95607.72
2023-04-01T01:26:56.452Z,95595.56
2023-04-01T01:29:35.310Z,95614.00
2023-04-01T01:32:07.687Z,95589.16
2023-04-01T01:34:52.315Z,95602.28
2023-04-01T01:37:18.993Z,95611.09
2023-04-01T01:39:47.327Z,95616.16
2023-04-01T01:42:14.506Z,95608.22
2023-04-01T01:44:41.007Z,95602.38
2023-04-01T01:47:07.438Z,95607.44
2023-04-01T01:49:34.150Z,95618.00
2023-04-01T01:52:00.595Z,95621.22
2023-04-01T01:54:27.186Z,95599.09
2023-04-01T01:56:57.086Z,95607.13
2023-04-01T01:59:23.660Z,95596.72
2023-04-01T02:01:50.816Z,95603.84
2023-04-01T02:04:17.405Z,95606.75
2023-04-01T02:06:45.926Z,95601.53
2023-04-01T02:09:12.412Z,95594.28
2023-04-01T02:11:41.824Z,95589.44
2023-04-01T02:14:31.221Z,95597.38
2023-04-01T02:17:03.846Z,95621.75
2023-04-01T02:19:40.290Z,95580.44
2023-04-01T02:22:07.009Z,95583.72
2023-04-01T02:24:33.432Z,95608.53
2023-04-01T02:26:59.969Z,95590.00
2023-04-01T02:29:26.476Z,95583.84
2023-04-01T02:31:53.055Z,95597.84
2023-04-01T02:34:19.916Z,95616.22
2023-04-01T02:36:46.416Z,95598.94
2023-04-01T02:39:13.132Z,95614.16
2023-04-01T02:41:40.481Z,95645.38
2023-04-01T02:44:07.100Z,95623.28
2023-04-01T02:46:33.696Z,95604.94
2023-04-01T02:49:00.208Z,95602.47
2023-04-01T02:51:26.920Z,95611.47
2023-04-01T02:53:53.419Z,95632.63
2023-04-01T02:56:19.894Z,95626.44
2023-04-01T02:58:46.775Z,95621.41
2023-04-01T03:01:13.301Z,95631.13
2023-04-01T03:03:39.818Z,95635.31
2023-04-01T03:06:09.938Z,95649.88
2023-04-01T03:08:36.436Z,95646.59
2023-04-01T03:11:03.081Z,95643.81
2023-04-01T03:13:29.554Z,95623.56
2023-04-01T03:15:56.130Z,95643.53
2023-04-01T03:18:22.578Z,95652.38
2023-04-01T03:20:49.286Z,95637.28
2023-04-01T03:23:15.742Z,95653.66
2023-04-01T03:25:42.187Z,95632.13
2023-04-01T03:28:08.572Z,95639.78
2023-04-01T03:30:35.044Z,95639.47
2023-04-01T03:33:01.487Z,95641.03
2023-04-01T03:35:27.960Z,95659.69
2023-04-01T03:37:54.643Z,95660.41
2023-04-01T03:40:21.487Z,95632.66
2023-04-01T03:42:48.164Z,95678.44
2023-04-01T03:45:14.620Z,95648.97
2023-04-01T03:47:41.096Z,95650.72
2023-04-01T03:50:07.738Z,95644.94
2023-04-01T03:52:34.393Z,95635.50
2023-04-01T03:55:01.373Z,95673.72
2023-04-01T03:57:28.126Z,95666.19
2023-04-01T03:59:54.491Z,95648.75
2023-04-01T04:02:21.021Z,95683.41
2023-04-01T04:04:47.574Z,95669.22
2023-04-01T04:07:14.064Z,95671.28
2023-04-01T04:09:40.463Z,95654.44
2023-04-01T04:12:07.175Z,95667.06
2023-04-01T04:14:33.609Z,95646.69
2023-04-01T04:17:00.125Z,95656.16
2023-04-01T04:19:26.630Z,95663.38
2023-04-01T04:21:53.135Z,95673.41
2023-04-01T04:24:19.619Z,95683.13
2023-04-01T04:26:46.024Z,95655.63
2023-04-01T04:29:12.500Z,95687.38
2023-04-01T04:31:38.982Z,95680.91
2023-04-01T04:34:05.526Z,95670.00
2023-04-01T04:36:31.992Z,95674.63
2023-04-01T04:38:58.445Z,95698.94
2023-04-01T04:41:24.838Z,95696.78
2023-04-01T04:43:51.867Z,95700.66
2023-04-01T04:46:18.454Z,95710.28
2023-04-01T04:48:44.995Z,95678.41
2023-04-01T04:51:14.227Z,95710.97
2023-04-01T04:53:40.673Z,95700.25
2023-04-01T04:56:07.223Z,95700.97
2023-04-01T04:58:33.720Z,95692.56
2023-04-01T05:01:00.280Z,95697.50
2023-04-01T05:03:26.950Z,95711.09
2023-04-01T05:05:54.044Z,95696.09
2023-04-01T05:08:20.588Z,95713.66
2023-04-01T05:10:47.095Z,95697.38
2023-04-01T05:13:13.616Z,95699.97
2023-04-01T05:15:40.066Z,95688.56
2023-04-01T05:18:06.512Z,95695.69
2023-04-01T05:20:33.162Z,95693.53
2023-04-01T05:22:59.721Z,95696.81
2023-04-01T05:25:26.104Z,95681.44
2023-04-01T05:27:52.696Z,95713.66
2023-04-01T05:30:19.127Z,95712.81
2023-04-01T05:32:45.607Z,95695.81
2023-04-01T05:35:12.231Z,95704.97
2023-04-01T05:37:38.731Z,95718.41
2023-04-01T05:40:05.489Z,95720.69
2023-04-01T05:42:31.988Z,95727.03
2023-04-01T05:44:58.449Z,95713.84
2023-04-01T05:47:25.018Z,95712.66
2023-04-01T05:49:51.484Z,95715.91
2023-04-01T05:52:17.966Z,95697.16
2023-04-01T05:54:44.446Z,95704.59
2023-04-01T05:57:10.984Z,95731.66
2023-04-01T05:59:37.508Z,95720.94
2023-04-01T06:02:04.005Z,95739.06
2023-04-01T06:04:33.919Z,95713.66
2023-04-01T06:07:00.466Z,95709.25
2023-04-01T06:09:30.640Z,95731.44
2023-04-01T06:12:03.362Z,95717.34
2023-04-01T06:14:42.044Z,95720.53
2023-04-01T06:17:20.911Z,95692.91
2023-04-01T06:19:47.385Z,95722.84
2023-04-01T06:22:16.678Z,95721.25
2023-04-01T06:24:45.634Z,95704.53
2023-04-01T06:27:16.488Z,95748.19
2023-04-01T06:29:52.561Z,95715.22
2023-04-01T06:32:19.057Z,95722.81
2023-04-01T06:35:04.980Z,95725.69
2023-04-01T06:37:43.674Z,95722.44
2023-04-01T06:40:29.133Z,95709.94
2023-04-01T06:43:14.468Z,95714.88
2023-04-01T06:45:43.375Z,95717.72
2023-04-01T06:48:25.264Z,95727.28
2023-04-01T06:51:10.410Z,95723.13
2023-04-01T06:53:36.949Z,95721.28
2023-04-01T06:56:05.110Z,95721.56
2023-04-01T06:58:50.321Z,95738.53
2023-04-01T07:01:22.783Z,95713.00
2023-04-01T07:03:51.066Z,95725.69
2023-04-01T07:06:24.043Z,95721.91
2023-04-01T07:08:50.470Z,95735.53
2023-04-01T07:11:21.832Z,95713.47
2023-04-01T07:13:51.294Z,95704.66
2023-04-01T07:16:30.285Z,95717.97
2023-04-01T07:19:07.709Z,95733.50
2023-04-01T07:21:41.550Z,95674.38
2023-04-01T07:24:11.350Z,95720.09
2023-04-01T07:26:37.827Z,95729.41
2023-04-01T07:29:06.003Z,95719.44
2023-04-01T07:31:45.723Z,95711.72
2023-04-01T07:34:12.172Z,95694.75
2023-04-01T07:36:57.449Z,95723.09
2023-04-01T07:39:26.641Z,95727.34
2023-04-01T07:41:55.909Z,95702.50
2023-04-01T07:44:26.748Z,95718.44
2023-04-01T07:47:02.078Z,95736.78
2023-04-01T07:50:07.359Z,95710.38
2023-04-01T07:52:38.412Z,95724.78
2023-04-01T07:55:19.225Z,95725.97
2023-04-01T07:57:51.898Z,95731.19
2023-04-01T08:00:21.952Z,95711.03
2023-04-01T08:02:57.674Z,95733.53
2023-04-01T08:05:31.102Z,95726.81
2023-04-01T08:08:16.621Z,95753.41
2023-04-01T08:10:51.048Z,95709.56
2023-04-01T08:13:17.809Z,95723.22
2023-04-01T08:15:53.288Z,95734.19
2023-04-01T08:18:39.043Z,95739.97
2023-04-01T08:21:07.062Z,95713.00
2023-04-01T08:23:34.121Z,95712.53
2023-04-01T08:26:05.968Z,95736.38
2023-04-01T08:28:32.430Z,95729.91
2023-04-01T08:31:00.272Z,95740.09
2023-04-01T08:33:29.938Z,95708.69
2023-04-01T08:35:59.424Z,95708.16
2023-04-01T08:38:28.442Z,95719.00
2023-04-01T08:40:54.858Z,95724.69
2023-04-01T08:43:40.345Z,95707.38
2023-04-01T08:46:12.814Z,95710.13
2023-04-01T08:48:54.466Z,95702.19
2023-04-01T08:51:39.761Z,95700.78
2023-04-01T08:54:06.183Z,95700.81
2023-04-01T08:56:35.163Z,95681.38
2023-04-01T08:59:20.553Z,95706.03
2023-04-01T09:02:06.067Z,95719.31
2023-04-01T09:04:51.616Z,95701.97
2023-04-01T09:07:30.173Z,95722.81
2023-04-01T09:10:00.995Z,95704.00
2023-04-01T09:12:46.189Z,95719.19
2023-04-01T09:15:24.646Z,95700.16
2023-04-01T09:18:07.476Z,95705.84
2023-04-01T09:20:52.994Z,95711.97
2023-04-01T09:23:22.292Z,95703.94
2023-04-01T09:26:05.183Z,95694.72
2023-04-01T09:28:38.698Z,95674.00
2023-04-01T09:31:11.611Z,95708.47
2023-04-01T09:33:56.944Z,95714.78
2023-04-01T09:36:42.098Z,95693.22
2023-04-01T09:39:26.877Z,95712.06
2023-04-01T09:42:12.078Z,95718.00
2023-04-01T09:44:42.950Z,95714.31
2023-04-01T09:47:12.680Z,95731.75
2023-04-01T09:49:39.441Z,95703.59
2023-04-01T09:52:19.203Z,95704.28
2023-04-01T09:54:50.254Z,95696.41
2023-04-01T09:57:35.788Z,95718.13
2023-04-01T10:00:07.767Z,95717.47
2023-04-01T10:02:37.478Z,95695.84
2023-04-01T10:05:16.061Z,95722.38
2023-04-01T10:08:01.270Z,95705.97
2023-04-01T10:10:46.577Z,95701.06
2023-04-01T10:13:19.234Z,95694.84
2023-04-01T10:15:49.344Z,95689.88
2023-04-01T10:18:27.805Z,95704.25
2023-04-01T10:21:12.760Z,95704.78
2023-04-01T10:23:39.226Z,95710.44
2023-04-01T10:26:17.697Z,95681.63
2023-04-01T10:29:02.738Z,95713.63
2023-04-01T10:31:34.317Z,95699.84
2023-04-01T10:34:23.569Z,95699.28
2023-04-01T10:36:53.765Z,95694.81
2023-04-01T10:39:38.642Z,95701.66
2023-04-01T10:42:10.972Z,95693.00
2023-04-01T10:44:37.433Z,95668.38
2023-04-01T10:47:14.439Z,95706.16
2023-04-01T10:49:49.967Z,95675.53
2023-04-01T10:52:35.056Z,95696.41
2023-04-01T10:55:20.052Z,95678.91
2023-04-01T10:57:52.348Z,95691.75
2023-04-01T11:00:27.777Z,95694.19
2023-04-01T11:03:02.101Z,95677.25
2023-04-01T11:05:31.795Z,95695.41
2023-04-01T11:08:06.505Z,95659.31
2023-04-01T11:10:50.381Z,95668.59
2023-04-01T11:13:30.082Z,95698.81
2023-04-01T11:16:13.117Z,95681.97
2023-04-01T11:18:52.203Z,95706.97
2023-04-01T11:21:21.643Z,95671.97
2023-04-01T11:24:03.838Z,95698.69
2023-04-01T11:26:34.015Z,95687.63
2023-04-01T11:29:04.439Z,95700.47
2023-04-01T11:31:30.856Z,95694.59
2023-04-01T11:33:57.279Z,95697.78
2023-04-01T11:36:30.476Z,95701.25
2023-04-01T11:39:01.918Z,95711.09
2023-04-01T11:42:00.888Z,95700.66
2023-04-01T11:44:27.830Z,95707.22
2023-04-01T11:47:00.470Z,95714.88
2023-04-01T11:49:47.209Z,95720.56
2023-04-01T11:52:19.677Z,95713.00
2023-04-01T11:55:01.411Z,95716.84
2023-04-01T11:57:39.894Z,95685.91
2023-04-01T12:00:18.603Z,95714.25
2023-04-01T12:02:52.848Z,95746.28
2023-04-01T12:05:32.494Z,95728.91
2023-04-01T12:08:08.944Z,95735.38
2023-04-01T12:10:54.677Z,95728.97
2023-04-01T12:13:28.449Z,95737.97
2023-04-01T12:15:54.953Z,95745.72
2023-04-01T12:18:39.686Z,95757.28
2023-04-01T12:21:21.561Z,95724.97
2023-04-01T12:23:58.591Z,95733.03
2023-04-01T12:26:34.538Z,95758.41
2023-04-01T12:29:07.830Z,95754.44
2023-04-01T12:31:43.831Z,95734.53
2023-04-01T12:34:36.509Z,95739.56
2023-04-01T12:37:06.445Z,95739.88
2023-04-01T12:39:45.412Z,95722.94
2023-04-01T12:42:25.343Z,95722.16
2023-04-01T12:44:51.866Z,95724.69
2023-04-01T12:47:31.622Z,95742.25
2023-04-01T12:50:17.070Z,95719.94
2023-04-01T12:52:49.470Z,95734.34
2023-04-01T12:55:34.412Z,95738.59
2023-04-01T12:58:03.716Z,95731.44
2023-04-01T13:00:45.556Z,95728.38
2023-04-01T13:03:11.997Z,95713.03
2023-04-01T13:05:41.113Z,95738.84
2023-04-01T13:08:07.455Z,95736.44
2023-04-01T13:10:39.732Z,95732.97
2023-04-01T13:13:26.362Z,95748.50
2023-04-01T13:15:52.861Z,95738.56
2023-04-01T13:18:25.121Z,95722.84
2023-04-01T13:20:57.768Z,95730.41
2023-04-01T13:23:24.184Z,95726.63
2023-04-01T13:26:07.024Z,95699.25
2023-04-01T13:28:53.121Z,95734.19
2023-04-01T13:31:31.717Z,95736.78
2023-04-01T13:34:27.507Z,95723.38
2023-04-01T13:36:56.589Z,95719.41
2023-04-01T13:39:41.787Z,95738.91
2023-04-01T13:42:10.954Z,95737.13
2023-04-01T13:44:48.216Z,95730.50
2023-04-01T13:47:33.142Z,95724.13
2023-04-01T13:50:18.625Z,95738.91
2023-04-01T13:53:01.301Z,95755.16
2023-04-01T13:55:27.790Z,95725.63
2023-04-01T13:58:17.131Z,95743.50
2023-04-01T14:00:45.762Z,95746.00
2023-04-01T14:03:31.126Z,95717.41
2023-04-01T14:06:06.722Z,95727.38
2023-04-01T14:08:59.454Z,95735.59
2023-04-01T14:11:40.711Z,95722.94
2023-04-01T14:14:17.521Z,95718.16
2023-04-01T14:16:49.861Z,95705.06
2023-04-01T14:19:32.220Z,95700.00
2023-04-01T14:21:58.698Z,95752.88
2023-04-01T14:24:32.683Z,95732.47
2023-04-01T14:27:05.269Z,95742.13
2023-04-01T14:29:35.854Z,95752.22
2023-04-01T14:32:02.273Z,95730.06
2023-04-01T14:34:44.925Z,95771.03
2023-04-01T14:37:16.909Z,95758.66
2023-04-01T14:39:55.850Z,95744.09
2023-04-01T14:42:28.112Z,95745.22
2023-04-01T14:44:54.527Z,95747.44
2023-04-01T14:47:39.967Z,95754.22
2023-04-01T14:50:07.593Z,95768.31
2023-04-01T14:52:34.768Z,95742.53
2023-04-01T14:55:01.268Z,95741.94
2023-04-01T14:57:28.616Z,95753.19
2023-04-01T15:00:00.340Z,95744.31
2023-04-01T15:02:36.859Z,95751.75
2023-04-01T15:05:04.150Z,95730.72
2023-04-01T15:07:36.525Z,95747.31
2023-04-01T15:10:21.879Z,95722.63
2023-04-01T15:13:14.724Z,95749.22
2023-04-01T15:15:41.215Z,95731.66
2023-04-01T15:18:08.952Z,95763.00
2023-04-01T15:20:35.567Z,95741.47
2023-04-01T15:23:13.196Z,95735.94
2023-04-01T15:25:43.072Z,95742.44
2023-04-01T15:28:09.486Z,95746.84
2023-04-01T15:30:50.156Z,95750.81
2023-04-01T15:33:29.973Z,95754.63
2023-04-01T15:35:59.460Z,95770.25
2023-04-01T15:38:32.084Z,95754.75
2023-04-01T15:41:02.207Z,95736.38
2023-04-01T15:43:31.538Z,95764.72
2023-04-01T15:46:10.132Z,95757.13
2023-04-01T15:48:46.971Z,95775.13
2023-04-01T15:51:25.945Z,95736.25
2023-04-01T15:53:58.330Z,95765.16
2023-04-01T15:56:36.673Z,95756.47
2023-04-01T15:59:08.921Z,95793.47
2023-04-01T16:01:40.569Z,95766.44
2023-04-01T16:04:25.040Z,95759.94
2023-04-01T16:07:05.068Z,95768.19
2023-04-01T16:09:50.580Z,95769.59
2023-04-01T16:12:17.067Z,95780.19
2023-04-01T16:14:54.474Z,95772.75
2023-04-01T16:17:20.935Z,95763.47
2023-04-01T16:19:50.220Z,95771.31
2023-04-01T16:22:55.030Z,95805.81
2023-04-01T16:25:26.500Z,95761.59
2023-04-01T16:27:56.458Z,95787.28
2023-04-01T16:30:39.182Z,95786.31
2023-04-01T16:33:12.872Z,95791.66
2023-04-01T16:35:44.854Z,95793.47
2023-04-01T16:38:25.514Z,95782.97
2023-04-01T16:41:00.321Z,95766.47
2023-04-01T16:43:31.867Z,95775.81
2023-04-01T16:45:58.287Z,95799.19
2023-04-01T16:48:28.840Z,95804.03
2023-04-01T16:50:56.619Z,95829.47
2023-04-01T16:53:31.949Z,95804.47
2023-04-01T16:56:03.909Z,95817.31
2023-04-01T16:58:37.283Z,95772.59
2023-04-01T17:01:05.314Z,95808.31
2023-04-01T17:03:37.919Z,95799.22
2023-04-01T17:06:08.292Z,95816.31
2023-04-01T17:08:43.767Z,95831.97
2023-04-01T17:11:13.249Z,95789.94
2023-04-01T17:13:47.116Z,95810.47
2023-04-01T17:16:25.968Z,95813.16
2023-04-01T17:19:01.609Z,95846.00
2023-04-01T17:21:30.871Z,95835.75
2023-04-01T17:24:20.620Z,95829.88
2023-04-01T17:26:47.054Z,95825.78
2023-04-01T17:29:39.612Z,95825.00
2023-04-01T17:32:08.710Z,95860.66
2023-04-01T17:34:41.392Z,95829.88
2023-04-01T17:37:20.949Z,95853.25
2023-04-01T17:39:49.955Z,95829.09
2023-04-01T17:42:17.479Z,95850.22
2023-04-01T17:44:50.526Z,95858.94
2023-04-01T17:47:21.876Z,95865.19
2023-04-01T17:49:51.056Z,95850.47
2023-04-01T17:52:32.779Z,95858.88
2023-04-01T17:55:17.995Z,95853.66
2023-04-01T17:57:47.078Z,95869.94
2023-04-01T18:00:16.497Z,95868.84
2023-04-01T18:02:43.018Z,95885.88
2023-04-01T18:05:12.462Z,95862.22
2023-04-01T18:07:57.092Z,95873.28
2023-04-01T18:10:25.123Z,95862.00
2023-04-01T18:13:05.944Z,95884.31
2023-04-01T18:15:32.362Z,95874.81
2023-04-01T18:18:01.780Z,95896.53
2023-04-01T18:20:46.673Z,95891.34
2023-04-01T18:23:28.396Z,95876.59
2023-04-01T18:25:55.457Z,95891.63
2023-04-01T18:28:21.866Z,95887.56
2023-04-01T18:31:17.757Z,95873.16
2023-04-01T18:33:53.321Z,95897.31
2023-04-01T18:36:38.507Z,95919.91
2023-04-01T18:39:23.094Z,95915.00
2023-04-01T18:42:18.983Z,95913.59
2023-04-01T18:44:48.141Z,95896.81
2023-04-01T18:47:33.557Z,95935.41
2023-04-01T18:50:07.393Z,95922.94
2023-04-01T18:52:35.135Z,95926.53
2023-04-01T18:55:01.578Z,95929.75
2023-04-01T18:57:28.315Z,95923.78
2023-04-01T18:59:56.444Z,95937.88
2023-04-01T19:02:28.284Z,95916.81
2023-04-01T19:05:01.479Z,95915.34
2023-04-01T19:07:40.047Z,95921.19
2023-04-01T19:10:17.150Z,95914.63
2023-04-01T19:12:46.606Z,95935.63
2023-04-01T19:15:15.698Z,95928.94
2023-04-01T19:17:54.310Z,95937.91
2023-04-01T19:20:42.181Z,95946.03
2023-04-01T19:23:15.060Z,95946.94
2023-04-01T19:25:59.911Z,95930.25
2023-04-01T19:28:26.366Z,95948.34
2023-04-01T19:30:55.925Z,95952.31
2023-04-01T19:33:31.297Z,95950.41
2023-04-01T19:36:16.202Z,95950.63
2023-04-01T19:38:44.058Z,95947.53
2023-04-01T19:41:14.274Z,95942.66
2023-04-01T19:43:45.299Z,95974.66
2023-04-01T19:46:11.716Z,95980.22
2023-04-01T19:48:45.842Z,95962.16
2023-04-01T19:51:15.340Z,95963.94
2023-04-01T19:53:47.193Z,95974.19
2023-04-01T19:56:13.596Z,95964.38
2023-04-01T19:58:55.036Z,95975.56
2023-04-01T20:01:45.312Z,95974.06
2023-04-01T20:04:14.142Z,95967.44
2023-04-01T20:07:01.942Z,95992.56
2023-04-01T20:09:28.371Z,95954.00
2023-04-01T20:11:54.824Z,95988.19
2023-04-01T20:14:24.209Z,95984.22
2023-04-01T20:17:01.330Z,95991.16
2023-04-01T20:19:34.361Z,95988.66
2023-04-01T20:22:00.838Z,95980.84
2023-04-01T20:24:27.258Z,95970.50
2023-04-01T20:27:12.369Z,95994.16
2023-04-01T20:29:38.757Z,95988.28
2023-04-01T20:32:17.649Z,95994.94
2023-04-01T20:34:46.932Z,95975.56
2023-04-01T20:37:32.299Z,95988.28
2023-04-01T20:39:58.802Z,95991.97
2023-04-01T20:42:30.184Z,95993.44
2023-04-01T20:45:01.839Z,96003.38
2023-04-01T20:47:46.289Z,95999.13
2023-04-01T20:50:20.097Z,96005.28
2023-04-01T20:52:57.128Z,95994.66
2023-04-01T20:55:42.364Z,96013.94
2023-04-01T20:58:22.549Z,96001.91
2023-04-01T21:00:58.597Z,96004.28
2023-04-01T21:03:43.587Z,95980.63
2023-04-01T21:06:16.393Z,96018.81
2023-04-01T21:08:54.848Z,96010.25
2023-04-01T21:11:24.228Z,95996.97
2023-04-01T21:14:10.880Z,96006.78
2023-04-01T21:17:16.288Z,95996.97
2023-04-01T21:19:42.690Z,96007.88
2023-04-01T21:22:18.461Z,95999.63
2023-04-01T21:24:50.864Z,96017.59
2023-04-01T21:27:17.278Z,95999.91
2023-04-01T21:29:46.786Z,96029.34
2023-04-01T21:32:19.234Z,96017.31
2023-04-01T21:34:52.841Z,96029.56
2023-04-01T21:37:22.142Z,96000.72
2023-04-01T21:40:02.035Z,96015.13
2023-04-01T21:42:40.924Z,96000.44
2023-04-01T21:45:10.394Z,96005.81
2023-04-01T21:47:36.817Z,96011.97
2023-04-01T21:50:23.556Z,96013.16
2023-04-01T21:53:19.520Z,96027.06
2023-04-01T21:55:55.131Z,95999.72
2023-04-01T21:58:39.577Z,96031.34
2023-04-01T22:01:21.783Z,96015.22
2023-04-01T22:03:52.017Z,96012.88
2023-04-01T22:06:18.458Z,96018.81
2023-04-01T22:08:50.841Z,96035.72
2023-04-01T22:11:35.926Z,96066.03
2023-04-01T22:14:04.080Z,96028.25
2023-04-01T22:16:48.399Z,96014.06
2023-04-01T22:19:21.898Z,96043.38
2023-04-01T22:21:51.506Z,96035.41
2023-04-01T22:24:25.838Z,96036.09
2023-04-01T22:26:59.337Z,96044.66
2023-04-01T22:29:31.939Z,96033.81
2023-04-01T22:32:06.434Z,96041.94
2023-04-01T22:34:38.631Z,96028.97
2023-04-01T22:37:23.743Z,96016.91
2023-04-01T22:40:12.181Z,96039.50
2023-04-01T22:42:43.026Z,96047.91
2023-04-01T22:45:28.396Z,96030.69
2023-04-01T22:48:13.604Z,96048.69
2023-04-01T22:50:45.891Z,96060.38
2023-04-01T22:53:12.297Z,96037.66
2023-04-01T22:55:39.320Z,96035.28
2023-04-01T22:58:26.105Z,96046.75
2023-04-01T23:00:53.558Z,96043.00
2023-04-01T23:03:20.483Z,96067.69
2023-04-01T23:05:59.972Z,96040.31
2023-04-01T23:08:39.861Z,96045.41
2023-04-01T23:11:07.644Z,96055.88
2023-04-01T23:13:38.832Z,96054.84
2023-04-01T23:16:05.424Z,96052.94
2023-04-01T23:19:04.464Z,96108.22
2023-04-01T23:21:38.572Z,96062.09
2023-04-01T23:24:17.277Z,96063.13
2023-04-01T23:26:46.440Z,96038.47
2023-04-01T23:29:16.638Z,96094.59
2023-04-01T23:31:43.659Z,96084.34
2023-04-01T23:34:10.208Z,96092.41
2023-04-01T23:36:38.388Z,96076.41
2023-04-01T23:39:06.306Z,96101.34
2023-04-01T23:41:32.736Z,96090.47
2023-04-01T23:44:10.155Z,96089.00
2023-04-01T23:46:36.677Z,96089.56
2023-04-01T23:49:03.430Z,96097.91
2023-04-01T23:51:30.580Z,96121.81
2023-04-01T23:53:57.873Z,96081.22
2023-04-01T23:56:24.276Z,96102.88
2023-04-01T23:58:51.466Z,96097.53
